Yellowstone National Park, Wyoming
Current Conditions -  °F | °C
As of 9:15 AM on Tuesday 21 Oct 2014 (Local Time) from KWYS Reporting Station
Light Rain Light Rain  
Wind Chill:   Ceiling: 4500
Heat Index:   Visibility: 5mi
Dew Point:   Wind: 6mph
Humidity: 100%   Direction: 290°WNW
Pressure: 29.91"   Gusts: NA
Location:  44.5747°N, 110.518°W
Report Text: KWYS 211515Z AUTO 29005KT 5SM -RA SCT037 OVC045 03/03 A2991 RMK AO2
Loading
Personal Weather Stations






























Interactive Weather Map
Tropical Storm Tracking
New forecast layout! Learn more

10-Day Weather Forecast

Advertisements
Track Severe Weather on mobile